ADDS METAR Data INFO
IDs: Format: Raw Decoded Include TAF

Data at: 0129 UTC 23 Nov 2017

METAR for:PAAK (Atka Arpt, AK, US)
Text:PAAK 230056Z AUTO 30029G42KT 9SM OVC041 06/M02 A3008 RMK AO2 PK WND 29042/0050 SLP186 T00561017
Temperature: 5.6°C ( 42°F)
Dewpoint: -1.7°C ( 29°F) [RH = 59%]
Pressure (altimeter):30.08 inches Hg (1018.7 mb) [Sea level pressure: 1018.6 mb]
Winds:from the WNW (300 degrees) at 33 MPH (29 knots; 14.9 m/s) gusting to 48 MPH (42 knots; 21.6 m/s)
Visibility: 9 sm ( 14 km)
Ceiling:4100 feet AGL
Clouds: overcast cloud deck at 4100 feet AGL
QC Flag:automated observation with no human augmentation
Text:PAAK 222356Z AUTO 30024G35KT 8SM FEW021 BKN036 OVC045 06/M01 A3007 RMK AO2 PK WND 29039/2334 RAE52 SLP183 P0000 60000 T00561006 10072 20044 53023
Temperature: 5.6°C ( 42°F)
Dewpoint: -0.6°C ( 31°F) [RH = 64%]
Pressure (altimeter):30.07 inches Hg (1018.4 mb) [Sea level pressure: 1018.3 mb]
Winds:from the WNW (300 degrees) at 28 MPH (24 knots; 12.3 m/s) gusting to 40 MPH (35 knots; 18.0 m/s)
Visibility: 8 sm ( 13 km)
Ceiling:3600 feet AGL
Clouds: few clouds at 2100 feet AGL, broken clouds at 3600 feet AGL, overcast cloud deck at 4500 feet AGL
QC Flag:automated observation with no human augmentation
Text:PAAK 222256Z AUTO 29027G36KT 4SM RA FEW015 BKN026 OVC037 06/02 A3004 RMK AO2 PK WND 29037/2159 RAB53 SLP172 P0000 T00610022
Temperature: 6.1°C ( 43°F)
Dewpoint: 2.2°C ( 36°F) [RH = 76%]
Pressure (altimeter):30.04 inches Hg (1017.4 mb) [Sea level pressure: 1017.2 mb]
Winds:from the WNW (290 degrees) at 31 MPH (27 knots; 13.9 m/s) gusting to 41 MPH (36 knots; 18.5 m/s)
Visibility: 4 sm ( 6 km)
Ceiling:2600 feet AGL
Clouds: few clouds at 1500 feet AGL, broken clouds at 2600 feet AGL, overcast cloud deck at 3700 feet AGL
Weather:RA (moderate rain)
QC Flag:automated observation with no human augmentation
Text:PAAK 222156Z AUTO 29025G36KT 9SM FEW022 OVC032 06/01 A3000 RMK AO2 PK WND 29036/2153 SLP162 T00610011
Temperature: 6.1°C ( 43°F)
Dewpoint: 1.1°C ( 34°F) [RH = 70%]
Pressure (altimeter):30.00 inches Hg (1016.0 mb) [Sea level pressure: 1016.2 mb]
Winds:from the WNW (290 degrees) at 29 MPH (25 knots; 12.9 m/s) gusting to 41 MPH (36 knots; 18.5 m/s)
Visibility: 9 sm ( 14 km)
Ceiling:3200 feet AGL
Clouds: few clouds at 2200 feet AGL, overcast cloud deck at 3200 feet AGL
QC Flag:automated observation with no human augmentation
Text:PAAK 222153Z AUTO 29030G36KT 9SM SCT022 OVC032 06/01 A3000 RMK AO2 PK WND 29036/2153
Temperature: 6.0°C ( 43°F)
Dewpoint: 1.0°C ( 34°F) [RH = 70%]
Pressure (altimeter):30.00 inches Hg (1016.0 mb)
Winds:from the WNW (290 degrees) at 34 MPH (30 knots; 15.4 m/s) gusting to 41 MPH (36 knots; 18.5 m/s)
Visibility: 9 sm ( 14 km)
Ceiling:3200 feet AGL
Clouds: scattered clouds at 2200 feet AGL, overcast cloud deck at 3200 feet AGL
QC Flag:automated observation with no human augmentation
Text:PAAK 222121Z AUTO 29023G28KT 7SM BKN026 OVC033 06/02 A2999 RMK AO2 PK WND 29033/2102
Temperature: 6.0°C ( 43°F)
Dewpoint: 2.0°C ( 36°F) [RH = 75%]
Pressure (altimeter):29.99 inches Hg (1015.7 mb)
Winds:from the WNW (290 degrees) at 26 MPH (23 knots; 11.8 m/s) gusting to 32 MPH (28 knots; 14.4 m/s)
Visibility: 7 sm ( 11 km)
Ceiling:2600 feet AGL
Clouds: broken clouds at 2600 feet AGL, overcast cloud deck at 3300 feet AGL
QC Flag:automated observation with no human augmentation
Text:PAAK 222112Z AUTO 29022G32KT 8SM FEW025 OVC031 06/02 A2999 RMK AO2 PK WND 29033/2102
Temperature: 6.0°C ( 43°F)
Dewpoint: 2.0°C ( 36°F) [RH = 75%]
Pressure (altimeter):29.99 inches Hg (1015.7 mb)
Winds:from the WNW (290 degrees) at 25 MPH (22 knots; 11.3 m/s) gusting to 37 MPH (32 knots; 16.5 m/s)
Visibility: 8 sm ( 13 km)
Ceiling:3100 feet AGL
Clouds: few clouds at 2500 feet AGL, overcast cloud deck at 3100 feet AGL
QC Flag:automated observation with no human augmentation
Text:PAAK 222056Z AUTO 29024G28KT 7SM BKN027 OVC033 06/02 A2999 RMK AO2 PK WND 30034/2021 SLP157 T00610017 53049
Temperature: 6.1°C ( 43°F)
Dewpoint: 1.7°C ( 35°F) [RH = 73%]
Pressure (altimeter):29.99 inches Hg (1015.7 mb) [Sea level pressure: 1015.7 mb]
Winds:from the WNW (290 degrees) at 28 MPH (24 knots; 12.3 m/s) gusting to 32 MPH (28 knots; 14.4 m/s)
Visibility: 7 sm ( 11 km)
Ceiling:2700 feet AGL
Clouds: broken clouds at 2700 feet AGL, overcast cloud deck at 3300 feet AGL
QC Flag:automated observation with no human augmentation
Text:PAAK 221956Z AUTO 29023G35KT 8SM BKN028 OVC035 06/01 A2994 RMK AO2 PK WND 30035/1952 SLP140 T00610011
Temperature: 6.1°C ( 43°F)
Dewpoint: 1.1°C ( 34°F) [RH = 70%]
Pressure (altimeter):29.94 inches Hg (1014.0 mb) [Sea level pressure: 1014.0 mb]
Winds:from the WNW (290 degrees) at 26 MPH (23 knots; 11.8 m/s) gusting to 40 MPH (35 knots; 18.0 m/s)
Visibility: 8 sm ( 13 km)
Ceiling:2800 feet AGL
Clouds: broken clouds at 2800 feet AGL, overcast cloud deck at 3500 feet AGL
QC Flag:automated observation with no human augmentation

TAF for:PAAK (Atka Arpt, AK, US)
Text:No data found